sensor_id;sensor_type;location;lat;lon;timestamp;P1;durP1;ratioP1;P2;durP2;ratioP2
8482;SDS011;4278;42.668;23.312;2022-11-14T00:02:24;62.07;;;29.40;;
8482;SDS011;4278;42.668;23.312;2022-11-14T00:04:53;57.33;;;30.30;;
8482;SDS011;4278;42.668;23.312;2022-11-14T00:07:19;64.20;;;31.87;;
8482;SDS011;4278;42.668;23.312;2022-11-14T00:09:46;69.17;;;33.20;;
8482;SDS011;4278;42.668;23.312;2022-11-14T00:12:12;66.37;;;32.63;;
8482;SDS011;4278;42.668;23.312;2022-11-14T00:14:39;68.83;;;33.27;;
8482;SDS011;4278;42.668;23.312;2022-11-14T00:17:05;66.07;;;33.53;;
8482;SDS011;4278;42.668;23.312;2022-11-14T00:19:32;61.70;;;31.03;;
8482;SDS011;4278;42.668;23.312;2022-11-14T00:22:00;67.57;;;33.37;;
8482;SDS011;4278;42.668;23.312;2022-11-14T00:24:26;64.50;;;31.03;;
8482;SDS011;4278;42.668;23.312;2022-11-14T00:26:53;62.87;;;31.23;;
8482;SDS011;4278;42.668;23.312;2022-11-14T00:29:19;61.67;;;32.60;;
8482;SDS011;4278;42.668;23.312;2022-11-14T00:31:46;62.90;;;30.10;;
8482;SDS011;4278;42.668;23.312;2022-11-14T00:34:12;55.07;;;29.93;;
8482;SDS011;4278;42.668;23.312;2022-11-14T00:36:38;61.43;;;29.87;;
8482;SDS011;4278;42.668;23.312;2022-11-14T00:39:07;54.57;;;29.13;;
8482;SDS011;4278;42.668;23.312;2022-11-14T00:41:35;55.17;;;28.60;;
8482;SDS011;4278;42.668;23.312;2022-11-14T00:44:01;53.70;;;27.27;;
8482;SDS011;4278;42.668;23.312;2022-11-14T00:46:28;53.57;;;29.27;;
8482;SDS011;4278;42.668;23.312;2022-11-14T00:48:54;58.73;;;28.83;;
8482;SDS011;4278;42.668;23.312;2022-11-14T00:51:21;59.07;;;27.50;;
8482;SDS011;4278;42.668;23.312;2022-11-14T00:53:47;58.17;;;28.47;;
8482;SDS011;4278;42.668;23.312;2022-11-14T00:56:15;56.53;;;27.53;;
8482;SDS011;4278;42.668;23.312;2022-11-14T00:58:42;54.93;;;29.77;;
8482;SDS011;4278;42.668;23.312;2022-11-14T01:01:08;54.10;;;28.03;;
8482;SDS011;4278;42.668;23.312;2022-11-14T01:03:35;47.23;;;22.03;;
8482;SDS011;4278;42.668;23.312;2022-11-14T01:06:02;52.07;;;25.33;;
8482;SDS011;4278;42.668;23.312;2022-11-14T01:08:29;48.63;;;24.23;;
8482;SDS011;4278;42.668;23.312;2022-11-14T01:10:56;45.27;;;21.60;;
8482;SDS011;4278;42.668;23.312;2022-11-14T01:13:24;36.23;;;21.37;;
8482;SDS011;4278;42.668;23.312;2022-11-14T01:15:51;37.83;;;19.37;;
8482;SDS011;4278;42.668;23.312;2022-11-14T01:18:19;36.00;;;19.57;;
8482;SDS011;4278;42.668;23.312;2022-11-14T01:20:47;39.10;;;18.47;;
8482;SDS011;4278;42.668;23.312;2022-11-14T01:23:14;34.70;;;18.90;;
8482;SDS011;4278;42.668;23.312;2022-11-14T01:25:41;36.90;;;19.93;;
8482;SDS011;4278;42.668;23.312;2022-11-14T01:28:08;39.67;;;20.03;;
8482;SDS011;4278;42.668;23.312;2022-11-14T01:30:36;36.80;;;18.40;;
8482;SDS011;4278;42.668;23.312;2022-11-14T01:33:03;29.27;;;16.30;;
8482;SDS011;4278;42.668;23.312;2022-11-14T01:35:30;33.73;;;16.73;;
8482;SDS011;4278;42.668;23.312;2022-11-14T01:37:56;40.17;;;19.73;;
8482;SDS011;4278;42.668;23.312;2022-11-14T01:40:23;48.57;;;24.53;;
8482;SDS011;4278;42.668;23.312;2022-11-14T01:43:15;52.10;;;25.87;;
8482;SDS011;4278;42.668;23.312;2022-11-14T01:45:49;52.50;;;27.30;;
8482;SDS011;4278;42.668;23.312;2022-11-14T01:48:17;58.60;;;28.23;;
8482;SDS011;4278;42.668;23.312;2022-11-14T01:50:45;53.43;;;29.07;;
8482;SDS011;4278;42.668;23.312;2022-11-14T01:53:12;60.47;;;28.47;;
8482;SDS011;4278;42.668;23.312;2022-11-14T01:55:39;54.57;;;27.90;;
8482;SDS011;4278;42.668;23.312;2022-11-14T01:58:05;55.20;;;27.70;;
8482;SDS011;4278;42.668;23.312;2022-11-14T02:00:32;59.10;;;29.07;;
8482;SDS011;4278;42.668;23.312;2022-11-14T02:03:00;56.57;;;28.77;;
8482;SDS011;4278;42.668;23.312;2022-11-14T02:05:27;58.27;;;30.10;;
8482;SDS011;4278;42.668;23.312;2022-11-14T02:07:54;61.60;;;31.87;;
8482;SDS011;4278;42.668;23.312;2022-11-14T02:10:20;64.13;;;32.03;;
8482;SDS011;4278;42.668;23.312;2022-11-14T02:12:47;73.57;;;35.30;;
8482;SDS011;4278;42.668;23.312;2022-11-14T02:15:15;71.27;;;33.53;;
8482;SDS011;4278;42.668;23.312;2022-11-14T02:17:41;68.27;;;33.30;;
8482;SDS011;4278;42.668;23.312;2022-11-14T02:20:20;71.63;;;35.47;;
8482;SDS011;4278;42.668;23.312;2022-11-14T02:22:47;76.23;;;34.93;;
8482;SDS011;4278;42.668;23.312;2022-11-14T02:25:14;71.60;;;35.37;;
8482;SDS011;4278;42.668;23.312;2022-11-14T02:27:41;73.83;;;34.60;;
8482;SDS011;4278;42.668;23.312;2022-11-14T02:30:10;65.43;;;32.77;;
8482;SDS011;4278;42.668;23.312;2022-11-14T02:32:37;68.07;;;32.90;;
8482;SDS011;4278;42.668;23.312;2022-11-14T02:35:03;67.50;;;33.57;;
8482;SDS011;4278;42.668;23.312;2022-11-14T02:37:31;67.40;;;32.80;;
8482;SDS011;4278;42.668;23.312;2022-11-14T02:39:58;69.37;;;33.13;;
8482;SDS011;4278;42.668;23.312;2022-11-14T02:42:24;64.67;;;31.33;;
8482;SDS011;4278;42.668;23.312;2022-11-14T02:44:51;67.20;;;32.30;;
8482;SDS011;4278;42.668;23.312;2022-11-14T02:47:17;62.17;;;29.00;;
8482;SDS011;4278;42.668;23.312;2022-11-14T02:49:44;59.73;;;29.83;;
8482;SDS011;4278;42.668;23.312;2022-11-14T02:52:10;59.60;;;30.40;;
8482;SDS011;4278;42.668;23.312;2022-11-14T02:54:38;53.73;;;27.40;;
8482;SDS011;4278;42.668;23.312;2022-11-14T02:57:05;55.27;;;27.10;;
8482;SDS011;4278;42.668;23.312;2022-11-14T02:59:31;51.57;;;26.10;;
8482;SDS011;4278;42.668;23.312;2022-11-14T03:01:58;51.33;;;25.63;;
8482;SDS011;4278;42.668;23.312;2022-11-14T03:04:24;54.63;;;28.27;;
8482;SDS011;4278;42.668;23.312;2022-11-14T03:06:51;53.90;;;28.07;;
8482;SDS011;4278;42.668;23.312;2022-11-14T03:09:17;59.23;;;27.23;;
8482;SDS011;4278;42.668;23.312;2022-11-14T03:11:45;58.43;;;29.20;;
8482;SDS011;4278;42.668;23.312;2022-11-14T03:14:12;55.93;;;27.83;;
8482;SDS011;4278;42.668;23.312;2022-11-14T03:16:38;57.27;;;28.10;;
8482;SDS011;4278;42.668;23.312;2022-11-14T03:19:05;53.47;;;28.20;;
8482;SDS011;4278;42.668;23.312;2022-11-14T03:21:32;60.03;;;28.83;;
8482;SDS011;4278;42.668;23.312;2022-11-14T03:23:59;60.37;;;29.33;;
8482;SDS011;4278;42.668;23.312;2022-11-14T03:26:25;58.30;;;27.47;;
8482;SDS011;4278;42.668;23.312;2022-11-14T03:28:53;59.70;;;28.30;;
8482;SDS011;4278;42.668;23.312;2022-11-14T03:31:20;56.33;;;27.90;;
8482;SDS011;4278;42.668;23.312;2022-11-14T03:33:46;59.13;;;27.87;;
8482;SDS011;4278;42.668;23.312;2022-11-14T03:36:13;57.70;;;28.77;;
8482;SDS011;4278;42.668;23.312;2022-11-14T03:38:39;60.83;;;29.50;;
8482;SDS011;4278;42.668;23.312;2022-11-14T03:41:06;59.73;;;31.17;;
8482;SDS011;4278;42.668;23.312;2022-11-14T03:43:33;55.47;;;27.43;;
8482;SDS011;4278;42.668;23.312;2022-11-14T03:46:01;55.07;;;27.70;;
8482;SDS011;4278;42.668;23.312;2022-11-14T03:48:28;54.30;;;27.70;;
8482;SDS011;4278;42.668;23.312;2022-11-14T03:50:55;55.90;;;28.33;;
8482;SDS011;4278;42.668;23.312;2022-11-14T03:53:21;63.00;;;27.57;;
8482;SDS011;4278;42.668;23.312;2022-11-14T03:55:48;51.80;;;25.87;;
8482;SDS011;4278;42.668;23.312;2022-11-14T03:58:14;54.57;;;26.37;;
8482;SDS011;4278;42.668;23.312;2022-11-14T04:00:41;58.63;;;26.27;;
8482;SDS011;4278;42.668;23.312;2022-11-14T04:03:08;60.90;;;27.90;;
8482;SDS011;4278;42.668;23.312;2022-11-14T04:05:35;59.73;;;27.10;;
8482;SDS011;4278;42.668;23.312;2022-11-14T04:08:03;50.37;;;25.23;;
8482;SDS011;4278;42.668;23.312;2022-11-14T04:10:29;48.73;;;23.93;;
8482;SDS011;4278;42.668;23.312;2022-11-14T04:12:56;46.00;;;23.90;;
8482;SDS011;4278;42.668;23.312;2022-11-14T04:15:22;52.80;;;23.87;;
8482;SDS011;4278;42.668;23.312;2022-11-14T04:17:49;47.73;;;23.23;;
8482;SDS011;4278;42.668;23.312;2022-11-14T04:20:17;44.37;;;22.73;;
8482;SDS011;4278;42.668;23.312;2022-11-14T04:22:44;43.77;;;21.10;;
8482;SDS011;4278;42.668;23.312;2022-11-14T04:25:11;46.43;;;22.67;;
8482;SDS011;4278;42.668;23.312;2022-11-14T04:27:37;47.00;;;22.70;;
8482;SDS011;4278;42.668;23.312;2022-11-14T04:30:04;42.60;;;21.63;;
8482;SDS011;4278;42.668;23.312;2022-11-14T04:32:31;44.83;;;21.80;;
8482;SDS011;4278;42.668;23.312;2022-11-14T04:34:58;45.57;;;23.13;;
8482;SDS011;4278;42.668;23.312;2022-11-14T04:37:26;42.93;;;21.47;;
8482;SDS011;4278;42.668;23.312;2022-11-14T04:39:52;42.57;;;21.97;;
8482;SDS011;4278;42.668;23.312;2022-11-14T04:42:22;45.80;;;22.60;;
8482;SDS011;4278;42.668;23.312;2022-11-14T04:44:49;39.93;;;21.03;;
8482;SDS011;4278;42.668;23.312;2022-11-14T04:47:16;38.90;;;20.83;;
8482;SDS011;4278;42.668;23.312;2022-11-14T04:49:42;44.97;;;21.93;;
8482;SDS011;4278;42.668;23.312;2022-11-14T04:52:09;44.23;;;21.33;;
8482;SDS011;4278;42.668;23.312;2022-11-14T04:54:37;44.17;;;21.87;;
8482;SDS011;4278;42.668;23.312;2022-11-14T04:57:03;43.17;;;22.33;;
8482;SDS011;4278;42.668;23.312;2022-11-14T04:59:30;43.90;;;21.67;;
8482;SDS011;4278;42.668;23.312;2022-11-14T05:01:56;49.93;;;23.50;;
8482;SDS011;4278;42.668;23.312;2022-11-14T05:04:22;45.70;;;22.43;;
8482;SDS011;4278;42.668;23.312;2022-11-14T05:06:49;41.07;;;22.17;;
8482;SDS011;4278;42.668;23.312;2022-11-14T05:09:15;48.80;;;22.97;;
8482;SDS011;4278;42.668;23.312;2022-11-14T05:11:43;43.27;;;22.37;;
8482;SDS011;4278;42.668;23.312;2022-11-14T05:14:10;42.87;;;22.60;;
8482;SDS011;4278;42.668;23.312;2022-11-14T05:16:36;46.70;;;23.13;;
8482;SDS011;4278;42.668;23.312;2022-11-14T05:19:03;53.27;;;24.37;;
8482;SDS011;4278;42.668;23.312;2022-11-14T05:21:29;62.10;;;26.50;;
8482;SDS011;4278;42.668;23.312;2022-11-14T05:23:56;71.20;;;26.67;;
8482;SDS011;4278;42.668;23.312;2022-11-14T05:26:22;93.73;;;27.77;;
8482;SDS011;4278;42.668;23.312;2022-11-14T05:28:50;79.77;;;26.37;;
8482;SDS011;4278;42.668;23.312;2022-11-14T05:31:17;94.13;;;29.83;;
8482;SDS011;4278;42.668;23.312;2022-11-14T05:33:43;58.90;;;26.47;;
8482;SDS011;4278;42.668;23.312;2022-11-14T05:36:11;62.93;;;26.00;;
8482;SDS011;4278;42.668;23.312;2022-11-14T05:38:38;58.30;;;25.60;;
8482;SDS011;4278;42.668;23.312;2022-11-14T05:41:04;64.97;;;25.90;;
8482;SDS011;4278;42.668;23.312;2022-11-14T05:43:31;61.00;;;25.80;;
8482;SDS011;4278;42.668;23.312;2022-11-14T05:45:59;58.33;;;25.70;;
8482;SDS011;4278;42.668;23.312;2022-11-14T05:48:26;58.57;;;25.80;;
8482;SDS011;4278;42.668;23.312;2022-11-14T05:50:53;67.53;;;25.83;;
8482;SDS011;4278;42.668;23.312;2022-11-14T05:53:20;66.13;;;27.17;;
8482;SDS011;4278;42.668;23.312;2022-11-14T05:55:46;52.77;;;24.50;;
8482;SDS011;4278;42.668;23.312;2022-11-14T05:58:13;56.00;;;25.13;;
8482;SDS011;4278;42.668;23.312;2022-11-14T06:00:39;66.20;;;26.47;;
8482;SDS011;4278;42.668;23.312;2022-11-14T06:03:07;81.70;;;27.67;;
8482;SDS011;4278;42.668;23.312;2022-11-14T06:05:34;60.43;;;25.07;;
8482;SDS011;4278;42.668;23.312;2022-11-14T06:08:00;56.87;;;24.23;;
8482;SDS011;4278;42.668;23.312;2022-11-14T06:10:27;64.10;;;24.57;;
8482;SDS011;4278;42.668;23.312;2022-11-14T06:12:54;60.57;;;23.30;;
8482;SDS011;4278;42.668;23.312;2022-11-14T06:15:20;60.83;;;23.53;;
8482;SDS011;4278;42.668;23.312;2022-11-14T06:17:47;50.70;;;22.50;;
8482;SDS011;4278;42.668;23.312;2022-11-14T06:20:15;44.73;;;19.03;;
8482;SDS011;4278;42.668;23.312;2022-11-14T06:22:41;36.37;;;17.57;;
8482;SDS011;4278;42.668;23.312;2022-11-14T06:25:08;38.60;;;18.20;;
8482;SDS011;4278;42.668;23.312;2022-11-14T06:27:34;36.17;;;18.13;;
8482;SDS011;4278;42.668;23.312;2022-11-14T06:30:01;42.93;;;18.73;;
8482;SDS011;4278;42.668;23.312;2022-11-14T06:32:27;39.33;;;18.13;;
8482;SDS011;4278;42.668;23.312;2022-11-14T06:34:54;37.93;;;19.33;;
8482;SDS011;4278;42.668;23.312;2022-11-14T06:37:22;47.33;;;20.43;;
8482;SDS011;4278;42.668;23.312;2022-11-14T06:39:48;55.77;;;21.30;;
8482;SDS011;4278;42.668;23.312;2022-11-14T06:42:15;51.63;;;20.97;;
8482;SDS011;4278;42.668;23.312;2022-11-14T06:44:41;49.13;;;22.07;;
8482;SDS011;4278;42.668;23.312;2022-11-14T06:47:08;66.43;;;22.73;;
8482;SDS011;4278;42.668;23.312;2022-11-14T06:49:34;50.40;;;20.90;;
8482;SDS011;4278;42.668;23.312;2022-11-14T06:52:01;40.93;;;21.57;;
8482;SDS011;4278;42.668;23.312;2022-11-14T06:54:29;47.80;;;21.57;;
8482;SDS011;4278;42.668;23.312;2022-11-14T06:56:55;49.20;;;22.13;;
8482;SDS011;4278;42.668;23.312;2022-11-14T06:59:22;46.13;;;21.37;;
8482;SDS011;4278;42.668;23.312;2022-11-14T07:01:48;53.60;;;23.30;;
8482;SDS011;4278;42.668;23.312;2022-11-14T07:04:15;51.27;;;21.23;;
8482;SDS011;4278;42.668;23.312;2022-11-14T07:06:42;46.47;;;22.43;;
8482;SDS011;4278;42.668;23.312;2022-11-14T07:09:08;50.10;;;23.20;;
8482;SDS011;4278;42.668;23.312;2022-11-14T07:11:36;45.37;;;21.77;;
8482;SDS011;4278;42.668;23.312;2022-11-14T07:14:03;49.10;;;22.23;;
8482;SDS011;4278;42.668;23.312;2022-11-14T07:16:31;50.50;;;21.20;;
8482;SDS011;4278;42.668;23.312;2022-11-14T07:18:59;47.03;;;22.93;;
8482;SDS011;4278;42.668;23.312;2022-11-14T07:21:25;48.73;;;20.80;;
8482;SDS011;4278;42.668;23.312;2022-11-14T07:23:52;46.00;;;21.60;;
8482;SDS011;4278;42.668;23.312;2022-11-14T07:26:19;43.33;;;21.80;;
8482;SDS011;4278;42.668;23.312;2022-11-14T07:28:47;51.03;;;23.40;;
8482;SDS011;4278;42.668;23.312;2022-11-14T07:31:14;55.33;;;24.33;;
8482;SDS011;4278;42.668;23.312;2022-11-14T07:33:41;53.87;;;23.83;;
8482;SDS011;4278;42.668;23.312;2022-11-14T07:36:08;49.50;;;23.83;;
8482;SDS011;4278;42.668;23.312;2022-11-14T07:38:35;57.00;;;25.47;;
8482;SDS011;4278;42.668;23.312;2022-11-14T07:41:03;57.08;;;28.70;;
8482;SDS011;4278;42.668;23.312;2022-11-14T07:43:29;57.47;;;26.63;;
8482;SDS011;4278;42.668;23.312;2022-11-14T07:45:59;60.67;;;25.77;;
8482;SDS011;4278;42.668;23.312;2022-11-14T07:48:25;58.37;;;25.87;;
8482;SDS011;4278;42.668;23.312;2022-11-14T07:50:52;59.17;;;25.40;;
8482;SDS011;4278;42.668;23.312;2022-11-14T07:53:18;60.13;;;25.57;;
8482;SDS011;4278;42.668;23.312;2022-11-14T07:55:45;59.77;;;25.03;;
8482;SDS011;4278;42.668;23.312;2022-11-14T07:58:11;59.97;;;25.47;;
8482;SDS011;4278;42.668;23.312;2022-11-14T08:00:38;57.37;;;26.17;;
8482;SDS011;4278;42.668;23.312;2022-11-14T08:03:06;56.97;;;27.63;;
8482;SDS011;4278;42.668;23.312;2022-11-14T08:05:33;65.87;;;27.33;;
8482;SDS011;4278;42.668;23.312;2022-11-14T08:07:59;62.10;;;26.63;;
8482;SDS011;4278;42.668;23.312;2022-11-14T08:10:26;58.20;;;27.23;;
8482;SDS011;4278;42.668;23.312;2022-11-14T08:12:56;62.73;;;27.47;;
8482;SDS011;4278;42.668;23.312;2022-11-14T08:15:23;66.37;;;29.23;;
8482;SDS011;4278;42.668;23.312;2022-11-14T08:17:49;58.00;;;27.03;;
8482;SDS011;4278;42.668;23.312;2022-11-14T08:20:17;59.83;;;28.30;;
8482;SDS011;4278;42.668;23.312;2022-11-14T08:22:44;62.03;;;26.50;;
8482;SDS011;4278;42.668;23.312;2022-11-14T08:25:10;58.03;;;26.07;;
8482;SDS011;4278;42.668;23.312;2022-11-14T08:27:37;59.37;;;27.93;;
8482;SDS011;4278;42.668;23.312;2022-11-14T08:30:03;58.23;;;26.40;;
8482;SDS011;4278;42.668;23.312;2022-11-14T08:32:30;55.23;;;26.67;;
8482;SDS011;4278;42.668;23.312;2022-11-14T08:34:57;61.83;;;27.27;;
8482;SDS011;4278;42.668;23.312;2022-11-14T08:37:24;55.00;;;26.50;;
8482;SDS011;4278;42.668;23.312;2022-11-14T08:39:51;49.00;;;26.23;;
8482;SDS011;4278;42.668;23.312;2022-11-14T08:42:17;49.77;;;25.30;;
8482;SDS011;4278;42.668;23.312;2022-11-14T08:44:44;55.47;;;27.50;;
8482;SDS011;4278;42.668;23.312;2022-11-14T08:47:10;56.90;;;26.50;;
8482;SDS011;4278;42.668;23.312;2022-11-14T08:49:37;57.23;;;27.63;;
8482;SDS011;4278;42.668;23.312;2022-11-14T08:52:03;61.13;;;29.53;;
8482;SDS011;4278;42.668;23.312;2022-11-14T08:54:35;53.87;;;27.07;;
8482;SDS011;4278;42.668;23.312;2022-11-14T08:57:01;54.47;;;26.27;;
8482;SDS011;4278;42.668;23.312;2022-11-14T08:59:29;61.90;;;28.67;;
8482;SDS011;4278;42.668;23.312;2022-11-14T09:01:55;61.73;;;28.67;;
8482;SDS011;4278;42.668;23.312;2022-11-14T09:04:25;66.23;;;29.67;;
8482;SDS011;4278;42.668;23.312;2022-11-14T09:06:54;58.30;;;29.30;;
8482;SDS011;4278;42.668;23.312;2022-11-14T09:09:23;62.90;;;28.27;;
8482;SDS011;4278;42.668;23.312;2022-11-14T09:11:51;61.17;;;28.47;;
8482;SDS011;4278;42.668;23.312;2022-11-14T09:14:18;63.63;;;28.70;;
8482;SDS011;4278;42.668;23.312;2022-11-14T09:16:45;51.10;;;25.73;;
8482;SDS011;4278;42.668;23.312;2022-11-14T09:19:12;57.87;;;28.40;;
8482;SDS011;4278;42.668;23.312;2022-11-14T09:21:38;62.47;;;28.17;;
8482;SDS011;4278;42.668;23.312;2022-11-14T09:24:05;52.83;;;27.07;;
8482;SDS011;4278;42.668;23.312;2022-11-14T09:26:32;48.27;;;25.50;;
8482;SDS011;4278;42.668;23.312;2022-11-14T09:29:00;49.20;;;25.30;;
8482;SDS011;4278;42.668;23.312;2022-11-14T09:31:27;47.70;;;24.27;;
8482;SDS011;4278;42.668;23.312;2022-11-14T09:33:53;45.10;;;25.53;;
8482;SDS011;4278;42.668;23.312;2022-11-14T09:36:20;44.63;;;24.63;;
8482;SDS011;4278;42.668;23.312;2022-11-14T09:38:49;45.00;;;24.20;;
8482;SDS011;4278;42.668;23.312;2022-11-14T09:41:23;45.93;;;26.03;;
8482;SDS011;4278;42.668;23.312;2022-11-14T09:44:00;52.97;;;24.47;;
8482;SDS011;4278;42.668;23.312;2022-11-14T09:46:38;47.10;;;24.67;;
8482;SDS011;4278;42.668;23.312;2022-11-14T09:49:07;48.40;;;25.47;;
8482;SDS011;4278;42.668;23.312;2022-11-14T09:51:36;53.60;;;25.50;;
8482;SDS011;4278;42.668;23.312;2022-11-14T09:54:09;47.07;;;26.73;;
8482;SDS011;4278;42.668;23.312;2022-11-14T09:56:38;49.47;;;27.60;;
8482;SDS011;4278;42.668;23.312;2022-11-14T09:59:07;54.07;;;27.37;;
8482;SDS011;4278;42.668;23.312;2022-11-14T10:01:38;54.83;;;29.30;;
8482;SDS011;4278;42.668;23.312;2022-11-14T10:04:08;53.10;;;27.40;;
8482;SDS011;4278;42.668;23.312;2022-11-14T10:06:41;51.40;;;26.37;;
8482;SDS011;4278;42.668;23.312;2022-11-14T10:09:18;47.93;;;25.80;;
8482;SDS011;4278;42.668;23.312;2022-11-14T10:11:49;56.33;;;27.23;;
8482;SDS011;4278;42.668;23.312;2022-11-14T10:14:21;53.43;;;27.57;;
8482;SDS011;4278;42.668;23.312;2022-11-14T10:16:55;51.53;;;28.87;;
8482;SDS011;4278;42.668;23.312;2022-11-14T10:19:26;49.93;;;28.47;;
8482;SDS011;4278;42.668;23.312;2022-11-14T10:21:59;55.90;;;26.93;;
8482;SDS011;4278;42.668;23.312;2022-11-14T10:24:31;54.63;;;28.37;;
8482;SDS011;4278;42.668;23.312;2022-11-14T10:27:02;53.73;;;29.03;;
8482;SDS011;4278;42.668;23.312;2022-11-14T10:29:35;58.90;;;29.10;;
8482;SDS011;4278;42.668;23.312;2022-11-14T10:32:07;59.97;;;29.10;;
8482;SDS011;4278;42.668;23.312;2022-11-14T10:34:41;54.70;;;28.50;;
8482;SDS011;4278;42.668;23.312;2022-11-14T10:37:14;54.83;;;27.40;;
8482;SDS011;4278;42.668;23.312;2022-11-14T10:39:45;54.33;;;26.87;;
8482;SDS011;4278;42.668;23.312;2022-11-14T10:42:13;51.93;;;27.03;;
8482;SDS011;4278;42.668;23.312;2022-11-14T10:47:11;50.53;;;27.63;;
8482;SDS011;4278;42.668;23.312;2022-11-14T10:49:38;45.72;;;27.38;;
8482;SDS011;4278;42.668;23.312;2022-11-14T10:52:09;50.42;;;28.55;;
8482;SDS011;4278;42.668;23.312;2022-11-14T10:54:38;44.20;;;27.27;;
8482;SDS011;4278;42.668;23.312;2022-11-14T10:57:12;47.22;;;28.77;;
8482;SDS011;4278;42.668;23.312;2022-11-14T10:59:40;46.90;;;28.10;;
8482;SDS011;4278;42.668;23.312;2022-11-14T11:02:07;45.90;;;28.30;;
8482;SDS011;4278;42.668;23.312;2022-11-14T11:04:36;42.13;;;27.13;;
8482;SDS011;4278;42.668;23.312;2022-11-14T11:07:17;44.72;;;28.05;;
8482;SDS011;4278;42.668;23.312;2022-11-14T11:09:58;43.03;;;28.75;;
8482;SDS011;4278;42.668;23.312;2022-11-14T11:12:43;47.97;;;29.58;;
8482;SDS011;4278;42.668;23.312;2022-11-14T11:15:13;47.42;;;28.58;;
8482;SDS011;4278;42.668;23.312;2022-11-14T11:17:41;46.65;;;27.15;;
8482;SDS011;4278;42.668;23.312;2022-11-14T11:23:04;41.10;;;28.23;;
8482;SDS011;4278;42.668;23.312;2022-11-14T11:25:32;45.80;;;28.80;;
8482;SDS011;4278;42.668;23.312;2022-11-14T11:28:03;44.88;;;28.35;;
8482;SDS011;4278;42.668;23.312;2022-11-14T11:30:29;44.90;;;29.02;;
8482;SDS011;4278;42.668;23.312;2022-11-14T11:32:56;46.42;;;28.83;;
8482;SDS011;4278;42.668;23.312;2022-11-14T11:35:42;47.45;;;29.90;;
8482;SDS011;4278;42.668;23.312;2022-11-14T11:38:10;45.15;;;29.48;;
8482;SDS011;4278;42.668;23.312;2022-11-14T11:40:37;45.50;;;29.15;;
8482;SDS011;4278;42.668;23.312;2022-11-14T11:43:08;48.80;;;31.30;;
8482;SDS011;4278;42.668;23.312;2022-11-14T11:45:36;50.38;;;31.52;;
8482;SDS011;4278;42.668;23.312;2022-11-14T11:48:07;49.25;;;31.35;;
8482;SDS011;4278;42.668;23.312;2022-11-14T11:50:38;52.28;;;33.00;;
8482;SDS011;4278;42.668;23.312;2022-11-14T11:53:09;55.08;;;33.97;;
8482;SDS011;4278;42.668;23.312;2022-11-14T11:55:40;55.00;;;34.05;;
8482;SDS011;4278;42.668;23.312;2022-11-14T11:58:09;51.47;;;32.90;;
8482;SDS011;4278;42.668;23.312;2022-11-14T12:00:37;56.15;;;35.05;;
8482;SDS011;4278;42.668;23.312;2022-11-14T12:03:04;56.80;;;34.83;;
8482;SDS011;4278;42.668;23.312;2022-11-14T12:05:37;59.30;;;34.88;;
8482;SDS011;4278;42.668;23.312;2022-11-14T12:08:09;63.70;;;35.63;;
8482;SDS011;4278;42.668;23.312;2022-11-14T12:10:39;62.30;;;35.20;;
8482;SDS011;4278;42.668;23.312;2022-11-14T12:13:13;59.85;;;34.10;;
8482;SDS011;4278;42.668;23.312;2022-11-14T12:15:48;62.92;;;33.45;;
8482;SDS011;4278;42.668;23.312;2022-11-14T12:18:22;58.15;;;32.85;;
8482;SDS011;4278;42.668;23.312;2022-11-14T12:23:51;57.30;;;32.53;;
8482;SDS011;4278;42.668;23.312;2022-11-14T12:26:30;61.47;;;31.57;;
8482;SDS011;4278;42.668;23.312;2022-11-14T12:29:03;60.33;;;33.93;;
8482;SDS011;4278;42.668;23.312;2022-11-14T12:31:34;61.03;;;31.60;;
8482;SDS011;4278;42.668;23.312;2022-11-14T12:34:01;66.30;;;32.13;;
8482;SDS011;4278;42.668;23.312;2022-11-14T12:36:30;59.00;;;31.77;;
8482;SDS011;4278;42.668;23.312;2022-11-14T12:38:57;61.93;;;32.90;;
8482;SDS011;4278;42.668;23.312;2022-11-14T12:41:25;61.53;;;31.77;;
8482;SDS011;4278;42.668;23.312;2022-11-14T12:43:54;61.47;;;31.83;;
8482;SDS011;4278;42.668;23.312;2022-11-14T12:49:37;73.63;;;35.43;;
8482;SDS011;4278;42.668;23.312;2022-11-14T12:52:06;69.53;;;33.70;;
8482;SDS011;4278;42.668;23.312;2022-11-14T12:54:50;61.97;;;33.63;;
8482;SDS011;4278;42.668;23.312;2022-11-14T12:57:20;70.87;;;33.17;;
8482;SDS011;4278;42.668;23.312;2022-11-14T13:00:11;65.60;;;33.77;;
8482;SDS011;4278;42.668;23.312;2022-11-14T13:02:47;63.40;;;33.77;;
8482;SDS011;4278;42.668;23.312;2022-11-14T13:05:28;62.93;;;33.40;;
8482;SDS011;4278;42.668;23.312;2022-11-14T13:08:06;64.83;;;34.43;;
8482;SDS011;4278;42.668;23.312;2022-11-14T13:10:36;63.90;;;31.97;;
8482;SDS011;4278;42.668;23.312;2022-11-14T13:13:06;63.83;;;34.43;;
8482;SDS011;4278;42.668;23.312;2022-11-14T13:15:52;65.87;;;33.30;;
8482;SDS011;4278;42.668;23.312;2022-11-14T13:18:48;63.43;;;32.37;;
8482;SDS011;4278;42.668;23.312;2022-11-14T13:21:32;67.43;;;35.17;;
8482;SDS011;4278;42.668;23.312;2022-11-14T13:24:12;66.07;;;34.40;;
8482;SDS011;4278;42.668;23.312;2022-11-14T13:26:50;65.10;;;36.00;;
8482;SDS011;4278;42.668;23.312;2022-11-14T13:32:05;66.30;;;34.37;;
8482;SDS011;4278;42.668;23.312;2022-11-14T13:34:42;70.13;;;33.97;;
8482;SDS011;4278;42.668;23.312;2022-11-14T13:37:13;63.57;;;34.77;;
8482;SDS011;4278;42.668;23.312;2022-11-14T13:39:46;66.20;;;35.13;;
8482;SDS011;4278;42.668;23.312;2022-11-14T13:42:21;70.33;;;36.87;;
8482;SDS011;4278;42.668;23.312;2022-11-14T13:47:40;71.83;;;37.53;;
8482;SDS011;4278;42.668;23.312;2022-11-14T13:50:09;74.53;;;34.93;;
8482;SDS011;4278;42.668;23.312;2022-11-14T13:52:39;69.17;;;35.33;;
8482;SDS011;4278;42.668;23.312;2022-11-14T13:55:07;71.60;;;36.97;;
8482;SDS011;4278;42.668;23.312;2022-11-14T13:57:37;65.50;;;35.03;;
8482;SDS011;4278;42.668;23.312;2022-11-14T14:00:10;66.03;;;36.77;;
8482;SDS011;4278;42.668;23.312;2022-11-14T14:02:43;61.17;;;35.40;;
8482;SDS011;4278;42.668;23.312;2022-11-14T14:05:15;68.30;;;36.37;;
8482;SDS011;4278;42.668;23.312;2022-11-14T14:07:56;69.50;;;36.83;;
8482;SDS011;4278;42.668;23.312;2022-11-14T14:10:26;71.33;;;36.87;;
8482;SDS011;4278;42.668;23.312;2022-11-14T14:12:58;70.50;;;36.67;;
8482;SDS011;4278;42.668;23.312;2022-11-14T14:15:29;67.43;;;36.17;;
8482;SDS011;4278;42.668;23.312;2022-11-14T14:18:02;72.10;;;36.40;;
8482;SDS011;4278;42.668;23.312;2022-11-14T14:20:32;66.23;;;36.93;;
8482;SDS011;4278;42.668;23.312;2022-11-14T14:23:05;70.97;;;36.73;;
8482;SDS011;4278;42.668;23.312;2022-11-14T14:25:36;70.00;;;37.43;;
8482;SDS011;4278;42.668;23.312;2022-11-14T14:28:08;71.57;;;36.70;;
8482;SDS011;4278;42.668;23.312;2022-11-14T14:30:36;74.87;;;38.70;;
8482;SDS011;4278;42.668;23.312;2022-11-14T14:33:14;72.37;;;38.33;;
8482;SDS011;4278;42.668;23.312;2022-11-14T14:35:48;72.03;;;37.77;;
8482;SDS011;4278;42.668;23.312;2022-11-14T14:38:20;78.50;;;38.23;;
8482;SDS011;4278;42.668;23.312;2022-11-14T14:40:48;76.33;;;39.40;;
8482;SDS011;4278;42.668;23.312;2022-11-14T14:43:20;68.60;;;37.90;;
8482;SDS011;4278;42.668;23.312;2022-11-14T14:45:50;72.23;;;37.57;;
8482;SDS011;4278;42.668;23.312;2022-11-14T14:48:20;74.40;;;38.03;;
8482;SDS011;4278;42.668;23.312;2022-11-14T14:50:48;73.87;;;36.30;;
8482;SDS011;4278;42.668;23.312;2022-11-14T14:53:18;76.60;;;38.27;;
8482;SDS011;4278;42.668;23.312;2022-11-14T14:55:49;75.97;;;37.27;;
8482;SDS011;4278;42.668;23.312;2022-11-14T14:58:22;67.40;;;36.40;;
8482;SDS011;4278;42.668;23.312;2022-11-14T15:00:50;73.00;;;39.53;;